createdAt,value
2023-03-24T00:00:00.000Z,14.94
2023-03-24T00:15:00.000Z,14.79
2023-03-24T00:30:00.000Z,13.96
2023-03-24T00:45:00.000Z,14.25
2023-03-24T01:00:00.000Z,13.75
2023-03-24T01:15:00.000Z,13.82
2023-03-24T01:30:00.000Z,13.95
2023-03-24T01:45:00.000Z,12.62
2023-03-24T02:00:00.000Z,10.86
2023-03-24T02:15:00.000Z,11.38
2023-03-24T02:30:00.000Z,10.27
2023-03-24T02:45:00.000Z,10.42
2023-03-24T03:00:00.000Z,10.28
2023-03-24T03:15:00.000Z,10.59
2023-03-24T03:30:00.000Z,10.38
2023-03-24T03:45:00.000Z,10.04
2023-03-24T04:00:00.000Z,10.46
2023-03-24T04:15:00.000Z,10.34
2023-03-24T04:30:00.000Z,10.35
2023-03-24T04:45:00.000Z,10.74
2023-03-24T05:00:00.000Z,13.12
2023-03-24T05:15:00.000Z,15.13
2023-03-24T05:30:00.000Z,14.01
2023-03-24T05:45:00.000Z,12.53
2023-03-24T06:00:00.000Z,11.75
2023-03-24T06:15:00.000Z,11.27
2023-03-24T06:30:00.000Z,11.06
2023-03-24T06:45:00.000Z,10.18
2023-03-24T07:00:00.000Z,10.26
2023-03-24T07:15:00.000Z,10.25
2023-03-24T07:30:00.000Z,11.02
2023-03-24T07:45:00.000Z,11.69
2023-03-24T08:00:00.000Z,10.42
2023-03-24T08:15:00.000Z,10.45
2023-03-24T08:30:00.000Z,10.07
2023-03-24T08:45:00.000Z,10.53
2023-03-24T09:00:00.000Z,11.86
2023-03-24T09:15:00.000Z,10.14
2023-03-24T09:30:00.000Z,10.19
2023-03-24T09:45:00.000Z,11.54
2023-03-24T10:00:00.000Z,15.38
2023-03-24T10:15:00.000Z,20.42
2023-03-24T10:30:00.000Z,15.42
2023-03-24T10:45:00.000Z,14.88
2023-03-24T11:00:00.000Z,17.04
2023-03-24T11:15:00.000Z,24.31
2023-03-24T11:30:00.000Z,20.24
2023-03-24T11:45:00.000Z,19.86
2023-03-24T12:00:00.000Z,14.51
2023-03-24T12:15:00.000Z,14.35
2023-03-24T12:30:00.000Z,14.91
2023-03-24T12:45:00.000Z,16.81
2023-03-24T13:00:00.000Z,17.07
2023-03-24T13:15:00.000Z,16.26
2023-03-24T13:30:00.000Z,16.64
2023-03-24T13:45:00.000Z,17.96
2023-03-24T14:00:00.000Z,16.82
2023-03-24T14:15:00.000Z,18.99
2023-03-24T14:30:00.000Z,16.59
2023-03-24T14:45:00.000Z,16.71
2023-03-24T15:00:00.000Z,15.81
2023-03-24T15:15:00.000Z,16.59
2023-03-24T15:30:00.000Z,16.47
2023-03-24T15:45:00.000Z,16.59
2023-03-24T16:00:00.000Z,16.82
2023-03-24T16:15:00.000Z,18.27
2023-03-24T16:30:00.000Z,24.82
2023-03-24T16:45:00.000Z,16.78
2023-03-24T17:00:00.000Z,7.49
2023-03-24T17:15:00.000Z,7.32
2023-03-24T17:30:00.000Z,6.59
2023-03-24T17:45:00.000Z,5.65
2023-03-24T18:00:00.000Z,6.44
2023-03-24T18:15:00.000Z,21.15
2023-03-24T18:30:00.000Z,32.88
2023-03-24T18:45:00.000Z,9.59
2023-03-24T19:00:00.000Z,4.65
2023-03-24T19:15:00.000Z,5.09
2023-03-24T19:30:00.000Z,7.73
2023-03-24T19:45:00.000Z,6.42
2023-03-24T20:00:00.000Z,4.46
2023-03-24T20:15:00.000Z,4.61
2023-03-24T20:30:00.000Z,4.64
2023-03-24T20:45:00.000Z,6.41
2023-03-24T21:00:00.000Z,17.44
2023-03-24T21:15:00.000Z,6.2
2023-03-24T21:30:00.000Z,4.92
2023-03-24T21:45:00.000Z,7.61
2023-03-24T22:00:00.000Z,8.2
2023-03-24T22:15:00.000Z,4.33
2023-03-24T22:30:00.000Z,4.25
2023-03-24T22:45:00.000Z,4.41
2023-03-24T23:00:00.000Z,4.31
2023-03-24T23:15:00.000Z,4.84
2023-03-24T23:30:00.000Z,4.39
2023-03-24T23:45:00.000Z,4.31
